createdAt,value
2022-10-15T00:00:32.559Z,99485.06
2022-10-15T00:01:34.182Z,99486.22
2022-10-15T00:02:35.703Z,99481.06
2022-10-15T00:03:37.791Z,99468.31
2022-10-15T00:04:39.248Z,99476.25
2022-10-15T00:05:40.747Z,99463.84
2022-10-15T00:06:42.238Z,99462.69
2022-10-15T00:07:43.911Z,99462.16
2022-10-15T00:08:45.581Z,99479.59
2022-10-15T00:09:47.039Z,99476.78
2022-10-15T00:10:48.475Z,99480.91
2022-10-15T00:11:49.960Z,99482.56
2022-10-15T00:12:51.483Z,99482.75
2022-10-15T00:13:53.490Z,99484.72
2022-10-15T00:14:55.030Z,99483.91
2022-10-15T00:15:56.861Z,99476.78
2022-10-15T00:16:58.287Z,99483.59
2022-10-15T00:17:59.764Z,99482.09
2022-10-15T00:19:01.266Z,99491.72
2022-10-15T00:20:03.910Z,99477.94
2022-10-15T00:21:06.232Z,99479.13
2022-10-15T00:22:07.709Z,99473.63
2022-10-15T00:23:09.265Z,99474.59
2022-10-15T00:24:10.723Z,99474.59
2022-10-15T00:25:12.341Z,99476.78
2022-10-15T00:26:14.644Z,99477.63
2022-10-15T00:27:16.190Z,99478.44
2022-10-15T00:28:17.747Z,99476.09
2022-10-15T00:29:19.459Z,99479.41
2022-10-15T00:30:21.088Z,99482.75
2022-10-15T00:31:24.376Z,99492.06
2022-10-15T00:32:26.419Z,99486.91
2022-10-15T00:33:27.961Z,99479.94
2022-10-15T00:34:29.426Z,99470.81
2022-10-15T00:35:30.895Z,99472.50
2022-10-15T00:36:33.519Z,99477.28
2022-10-15T00:37:35.053Z,99482.44
2022-10-15T00:38:36.596Z,99477.63
2022-10-15T00:39:38.065Z,99480.94
2022-10-15T00:40:41.079Z,99471.81
2022-10-15T00:41:43.113Z,99480.44
2022-10-15T00:42:44.727Z,99477.75
2022-10-15T00:43:52.903Z,99480.91
2022-10-15T00:44:56.874Z,99477.13
2022-10-15T00:45:58.340Z,99473.47
2022-10-15T00:47:19.478Z,99471.81
2022-10-15T00:48:28.264Z,99474.44
2022-10-15T00:49:35.805Z,99476.09
2022-10-15T00:50:37.240Z,99479.94
2022-10-15T00:51:40.180Z,99471.13
2022-10-15T00:52:44.780Z,99471.78
2022-10-15T00:53:46.569Z,99465.00
2022-10-15T00:54:48.570Z,99463.84
2022-10-15T00:55:51.154Z,99467.81
2022-10-15T00:56:52.605Z,99461.84
2022-10-15T00:57:54.294Z,99462.19
2022-10-15T00:58:55.733Z,99468.97
2022-10-15T00:59:57.963Z,99464.34
2022-10-15T01:00:59.725Z,99460.69
2022-10-15T01:02:01.194Z,99455.22
2022-10-15T01:03:02.750Z,99466.16
2022-10-15T01:04:04.438Z,99459.53
2022-10-15T01:05:06.136Z,99458.38
2022-10-15T01:06:07.625Z,99452.75
2022-10-15T01:07:09.227Z,99455.72
2022-10-15T01:08:13.121Z,99459.69
2022-10-15T01:09:14.569Z,99461.19
2022-10-15T01:10:16.138Z,99458.50
2022-10-15T01:11:32.799Z,99455.38
2022-10-15T01:12:43.870Z,99436.13
2022-10-15T01:13:48.065Z,99454.56
2022-10-15T01:14:52.425Z,99450.88
2022-10-15T01:15:55.882Z,99447.75
2022-10-15T01:17:03.191Z,99452.56
2022-10-15T01:18:04.894Z,99444.41
2022-10-15T01:19:08.975Z,99457.53
2022-10-15T01:20:30.695Z,99464.16
2022-10-15T01:22:00.383Z,99461.53
2022-10-15T01:23:04.942Z,99463.31
2022-10-15T01:24:15.306Z,99468.66
2022-10-15T01:26:42.655Z,99467.66
2022-10-15T01:27:46.061Z,99474.31
2022-10-15T01:29:14.249Z,99465.50
2022-10-15T01:30:18.653Z,99469.97
2022-10-15T01:31:20.100Z,99466.16
2022-10-15T01:32:28.109Z,99463.50
2022-10-15T01:33:35.402Z,99468.81
2022-10-15T01:34:43.885Z,99466.16
2022-10-15T01:35:49.193Z,99463.34
2022-10-15T01:36:52.757Z,99461.34
2022-10-15T01:38:05.875Z,99464.50
2022-10-15T01:39:19.662Z,99469.34
2022-10-15T01:40:23.321Z,99466.66
2022-10-15T01:41:32.404Z,99464.66
2022-10-15T01:42:35.616Z,99464.00
2022-10-15T01:43:44.095Z,99458.00
2022-10-15T01:45:11.971Z,99458.00
2022-10-15T01:46:51.037Z,99453.53
2022-10-15T01:47:56.637Z,99455.53
2022-10-15T01:48:58.221Z,99455.19
2022-10-15T01:49:59.692Z,99458.50
2022-10-15T01:51:02.108Z,99455.19
2022-10-15T01:52:06.284Z,99450.06
2022-10-15T01:53:07.753Z,99458.88
2022-10-15T01:54:10.446Z,99446.91
2022-10-15T01:55:12.540Z,99453.72
2022-10-15T01:56:15.786Z,99450.91
2022-10-15T01:57:17.455Z,99438.63
2022-10-15T01:58:19.538Z,99453.06
2022-10-15T01:59:25.593Z,99444.09
2022-10-15T02:00:28.026Z,99447.56
2022-10-15T02:01:29.754Z,99441.09
2022-10-15T02:02:31.714Z,99450.88
2022-10-15T02:03:42.906Z,99443.09
2022-10-15T02:04:44.707Z,99439.94
2022-10-15T02:05:51.327Z,99449.56
2022-10-15T02:07:13.023Z,99446.25
2022-10-15T02:08:18.126Z,99445.56
2022-10-15T02:09:38.242Z,99435.94
2022-10-15T02:10:50.039Z,99433.66
2022-10-15T02:12:01.147Z,99430.97
2022-10-15T02:13:21.352Z,99432.97
2022-10-15T02:14:27.194Z,99430.31
2022-10-15T02:15:39.226Z,99431.66
2022-10-15T02:16:42.922Z,99434.66
2022-10-15T02:17:44.334Z,99432.81
2022-10-15T02:18:48.825Z,99439.41
2022-10-15T02:19:50.428Z,99440.25
2022-10-15T02:20:56.130Z,99451.19
2022-10-15T02:22:17.883Z,99454.19
2022-10-15T02:23:21.443Z,99444.22
2022-10-15T02:24:24.008Z,99444.72
2022-10-15T02:25:25.516Z,99443.53
2022-10-15T02:26:27.854Z,99440.38
2022-10-15T02:27:29.326Z,99440.88
2022-10-15T02:28:30.909Z,99441.38
2022-10-15T02:29:33.016Z,99438.22
2022-10-15T02:30:34.495Z,99445.53
2022-10-15T02:31:37.771Z,99438.22
2022-10-15T02:32:41.982Z,99454.47
2022-10-15T02:33:43.726Z,99453.66
2022-10-15T02:34:48.031Z,99461.78
2022-10-15T02:35:49.550Z,99461.78
2022-10-15T02:36:51.857Z,99459.78
2022-10-15T02:37:53.777Z,99460.59
2022-10-15T02:38:55.404Z,99458.59
2022-10-15T02:39:57.051Z,99462.25
2022-10-15T02:40:58.994Z,99460.25
2022-10-15T02:42:00.542Z,99459.91
2022-10-15T02:43:03.919Z,99451.47
2022-10-15T02:44:05.459Z,99452.28
2022-10-15T02:45:07.083Z,99451.13
2022-10-15T02:46:09.070Z,99462.09
2022-10-15T02:47:11.834Z,99458.09
2022-10-15T02:48:14.190Z,99469.41
2022-10-15T02:49:15.674Z,99469.41
2022-10-15T02:50:17.261Z,99462.91
2022-10-15T02:51:19.877Z,99462.91
2022-10-15T02:52:21.579Z,99475.03
2022-10-15T02:53:23.387Z,99466.91
2022-10-15T02:54:24.867Z,99461.28
2022-10-15T02:55:26.328Z,99470.56
2022-10-15T02:56:27.871Z,99470.22
2022-10-15T02:57:29.543Z,99463.75
2022-10-15T02:58:32.511Z,99463.75
2022-10-15T02:59:34.077Z,99465.41
2022-10-15T03:00:35.827Z,99469.53
2022-10-15T03:01:37.331Z,99457.41
2022-10-15T03:02:40.053Z,99459.06
2022-10-15T03:03:41.688Z,99451.44
2022-10-15T03:04:43.366Z,99453.44
2022-10-15T03:05:45.390Z,99459.06
2022-10-15T03:06:47.739Z,99457.06
2022-10-15T03:07:49.283Z,99456.75
2022-10-15T03:08:50.787Z,99457.56
2022-10-15T03:09:52.248Z,99454.41
2022-10-15T03:10:53.865Z,99447.09
2022-10-15T03:11:55.331Z,99453.22
2022-10-15T03:13:01.740Z,99455.22
2022-10-15T03:14:03.263Z,99456.06
2022-10-15T03:15:07.180Z,99463.34
2022-10-15T03:16:10.319Z,99460.22
2022-10-15T03:17:13.359Z,99445.44
2022-10-15T03:18:15.239Z,99456.22
2022-10-15T03:19:17.563Z,99455.41
2022-10-15T03:20:20.627Z,99452.56
2022-10-15T03:21:22.199Z,99457.06
2022-10-15T03:22:24.023Z,99451.41
2022-10-15T03:23:27.854Z,99462.69
2022-10-15T03:24:39.970Z,99458.72
2022-10-15T03:25:41.555Z,99468.00
2022-10-15T03:26:47.433Z,99463.19
2022-10-15T03:27:48.946Z,99462.34
2022-10-15T03:28:58.982Z,99461.53
2022-10-15T03:30:08.815Z,99457.88
2022-10-15T03:31:10.410Z,99458.72
2022-10-15T03:32:11.985Z,99461.53
2022-10-15T03:33:13.995Z,99466.84
2022-10-15T03:34:15.554Z,99456.72
2022-10-15T03:35:17.130Z,99464.84
2022-10-15T03:36:18.663Z,99475.66
2022-10-15T03:37:20.389Z,99469.19
2022-10-15T03:38:22.113Z,99470.81
2022-10-15T03:39:25.487Z,99474.00
2022-10-15T03:40:30.748Z,99477.66
2022-10-15T03:42:57.042Z,99477.66
2022-10-15T03:44:02.452Z,99475.66
2022-10-15T03:45:05.477Z,99479.63
2022-10-15T03:46:07.031Z,99478.00
2022-10-15T03:47:12.446Z,99476.34
2022-10-15T03:48:20.102Z,99479.63
2022-10-15T03:49:21.635Z,99477.16
2022-10-15T03:50:23.520Z,99478.00
2022-10-15T03:51:26.778Z,99487.28
2022-10-15T03:52:36.722Z,99490.09
2022-10-15T03:53:38.354Z,99485.28
2022-10-15T03:54:40.580Z,99490.94
2022-10-15T03:55:42.928Z,99492.59
2022-10-15T03:56:44.575Z,99486.13
2022-10-15T03:58:01.565Z,99486.94
2022-10-15T03:59:02.994Z,99487.78
2022-10-15T04:00:05.554Z,99486.94
2022-10-15T04:01:14.837Z,99476.47
2022-10-15T04:02:16.735Z,99492.25
2022-10-15T04:03:18.328Z,99483.78
2022-10-15T04:04:19.991Z,99483.63
2022-10-15T04:05:21.485Z,99485.28
2022-10-15T04:06:28.100Z,99490.94
2022-10-15T04:07:29.641Z,99485.28
2022-10-15T04:08:31.714Z,99474.81
2022-10-15T04:09:33.827Z,99486.13
2022-10-15T04:11:01.568Z,99478.00
2022-10-15T04:12:03.806Z,99494.94
2022-10-15T04:13:05.321Z,99489.28
2022-10-15T04:14:08.300Z,99488.09
2022-10-15T04:15:10.227Z,99495.75
2022-10-15T04:16:18.861Z,99497.41
2022-10-15T04:17:20.538Z,99502.22
2022-10-15T04:18:22.939Z,99503.06
2022-10-15T04:19:28.218Z,99503.88
2022-10-15T04:20:37.802Z,99502.22
2022-10-15T04:21:48.118Z,99503.06
2022-10-15T04:23:02.688Z,99507.88
2022-10-15T04:24:04.180Z,99494.94
2022-10-15T04:25:14.887Z,99503.41
2022-10-15T04:26:17.158Z,99497.75
2022-10-15T04:27:18.884Z,99498.22
2022-10-15T04:28:20.385Z,99502.72
2022-10-15T04:29:21.923Z,99512.00
2022-10-15T04:30:24.203Z,99505.88
2022-10-15T04:31:31.700Z,99515.19
2022-10-15T04:32:33.855Z,99513.53
2022-10-15T04:33:35.539Z,99513.53
2022-10-15T04:34:37.036Z,99515.19
2022-10-15T04:35:38.505Z,99509.53
2022-10-15T04:36:45.182Z,99512.34
2022-10-15T04:37:49.781Z,99508.34
2022-10-15T04:38:52.378Z,99499.88
2022-10-15T04:40:26.036Z,99507.19
2022-10-15T04:41:27.570Z,99498.38
2022-10-15T04:42:34.627Z,99502.38
2022-10-15T04:43:36.152Z,99513.31
2022-10-15T04:44:41.383Z,99499.53
2022-10-15T04:45:42.911Z,99513.31
2022-10-15T04:46:44.431Z,99512.16
2022-10-15T04:48:15.019Z,99516.16
2022-10-15T04:49:16.507Z,99520.13
2022-10-15T04:50:18.140Z,99519.31
2022-10-15T04:51:37.939Z,99513.53
2022-10-15T04:52:47.110Z,99520.81
2022-10-15T04:53:48.626Z,99518.34
2022-10-15T04:54:50.245Z,99519.16
2022-10-15T04:55:53.027Z,99522.81
2022-10-15T04:56:55.415Z,99523.66
2022-10-15T04:57:57.002Z,99522.47
2022-10-15T04:59:06.087Z,99527.28
2022-10-15T05:00:11.783Z,99522.47
2022-10-15T05:01:16.959Z,99526.47
2022-10-15T05:02:33.081Z,99526.47
2022-10-15T05:03:49.338Z,99525.31
2022-10-15T05:04:50.825Z,99513.53
2022-10-15T05:05:52.287Z,99524.97
2022-10-15T05:06:53.842Z,99528.28
2022-10-15T05:07:55.444Z,99532.28
2022-10-15T05:08:56.932Z,99526.28
2022-10-15T05:10:05.064Z,99527.97
2022-10-15T05:11:07.469Z,99523.16
2022-10-15T05:12:09.478Z,99524.81
2022-10-15T05:13:10.960Z,99531.28
2022-10-15T05:14:13.273Z,99518.00
2022-10-15T05:15:14.911Z,99524.81
2022-10-15T05:16:20.097Z,99532.13
2022-10-15T05:17:21.871Z,99528.13
2022-10-15T05:18:23.743Z,99529.78
2022-10-15T05:19:27.045Z,99524.13
2022-10-15T05:20:28.724Z,99530.59
2022-10-15T05:21:31.135Z,99534.25
2022-10-15T05:22:35.230Z,99530.59
2022-10-15T05:23:37.362Z,99530.59
2022-10-15T05:25:08.000Z,99531.44
2022-10-15T05:26:12.668Z,99541.91
2022-10-15T05:27:14.165Z,99541.06
2022-10-15T05:28:16.548Z,99534.59
2022-10-15T05:29:18.079Z,99539.41
2022-10-15T05:30:19.602Z,99533.78
2022-10-15T05:31:27.437Z,99546.22
2022-10-15T05:32:37.517Z,99549.41
2022-10-15T05:33:39.118Z,99540.94
2022-10-15T05:34:40.599Z,99547.41
2022-10-15T05:35:47.654Z,99553.88
2022-10-15T05:36:49.145Z,99556.34
2022-10-15T05:37:50.843Z,99558.34
2022-10-15T05:38:53.382Z,99562.00
2022-10-15T05:39:54.909Z,99560.00
2022-10-15T05:40:56.655Z,99564.00
2022-10-15T05:41:59.191Z,99567.50
2022-10-15T05:43:11.317Z,99576.81
2022-10-15T05:44:12.832Z,99571.81
2022-10-15T05:45:14.374Z,99578.63
2022-10-15T05:46:16.650Z,99576.97
2022-10-15T05:47:18.110Z,99584.25
2022-10-15T05:48:20.476Z,99587.91
2022-10-15T05:49:22.046Z,99591.06
2022-10-15T05:50:33.298Z,99582.94
2022-10-15T05:51:37.431Z,99576.81
2022-10-15T05:52:44.404Z,99584.78
2022-10-15T05:54:15.292Z,99584.44
2022-10-15T05:55:16.884Z,99583.28
2022-10-15T05:56:18.322Z,99582.47
2022-10-15T05:57:19.744Z,99579.16
2022-10-15T05:58:21.205Z,99587.28
2022-10-15T05:59:22.719Z,99587.75
2022-10-15T06:00:24.186Z,99594.72
2022-10-15T06:01:27.200Z,99584.94
2022-10-15T06:02:29.275Z,99584.94
2022-10-15T06:03:31.076Z,99589.91
2022-10-15T06:04:35.576Z,99592.91
2022-10-15T06:05:37.440Z,99599.38
2022-10-15T06:06:38.890Z,99596.22
2022-10-15T06:07:40.351Z,99599.53
2022-10-15T06:08:41.822Z,99596.38
2022-10-15T06:09:43.294Z,99601.69
2022-10-15T06:10:44.903Z,99602.50
2022-10-15T06:11:47.091Z,99592.88
2022-10-15T06:12:52.960Z,99587.22
2022-10-15T06:13:54.514Z,99592.88
2022-10-15T06:14:55.970Z,99600.19
2022-10-15T06:15:57.391Z,99597.69
2022-10-15T06:16:59.021Z,99588.06
2022-10-15T06:18:00.614Z,99600.19
2022-10-15T06:19:02.126Z,99595.22
2022-10-15T06:20:03.604Z,99596.03
2022-10-15T06:21:05.623Z,99602.50
2022-10-15T06:22:07.100Z,99606.16
2022-10-15T06:23:08.820Z,99603.34
2022-10-15T06:24:10.627Z,99607.00
2022-10-15T06:25:12.049Z,99611.47
2022-10-15T06:26:13.502Z,99617.94
2022-10-15T06:27:16.494Z,99620.44
2022-10-15T06:28:18.029Z,99613.97
2022-10-15T06:29:19.604Z,99615.94
2022-10-15T06:30:21.074Z,99624.44
2022-10-15T06:31:22.670Z,99619.47
2022-10-15T06:32:24.093Z,99617.81
2022-10-15T06:33:25.600Z,99625.94
2022-10-15T06:34:27.127Z,99624.75
2022-10-15T06:35:33.421Z,99626.75
2022-10-15T06:36:34.917Z,99622.78
2022-10-15T06:37:36.400Z,99622.78
2022-10-15T06:38:39.325Z,99624.44
2022-10-15T06:39:41.039Z,99632.06
2022-10-15T06:40:42.485Z,99630.06
2022-10-15T06:41:44.215Z,99625.94
2022-10-15T06:42:45.729Z,99628.75
2022-10-15T06:43:50.170Z,99632.25
2022-10-15T06:44:51.697Z,99640.38
2022-10-15T06:45:53.188Z,99634.75
2022-10-15T06:46:54.702Z,99634.75
2022-10-15T06:47:56.186Z,99642.72
2022-10-15T06:48:57.847Z,99643.56
2022-10-15T06:49:59.388Z,99650.03
2022-10-15T06:51:00.999Z,99646.72
2022-10-15T06:52:03.863Z,99644.22
2022-10-15T06:53:05.635Z,99645.06
2022-10-15T06:54:07.099Z,99644.72
2022-10-15T06:55:08.799Z,99649.19
2022-10-15T06:56:10.237Z,99650.38
2022-10-15T06:57:12.666Z,99648.38
2022-10-15T06:58:14.122Z,99641.91
2022-10-15T06:59:15.587Z,99647.19
2022-10-15T07:00:17.213Z,99651.69
2022-10-15T07:01:18.714Z,99656.00
2022-10-15T07:02:20.224Z,99641.75
2022-10-15T07:03:22.244Z,99641.75
2022-10-15T07:04:24.222Z,99644.56
2022-10-15T07:05:25.858Z,99653.03
2022-10-15T07:06:27.359Z,99656.34
2022-10-15T07:07:28.824Z,99654.69
2022-10-15T07:08:30.356Z,99655.53
2022-10-15T07:09:31.910Z,99667.31
2022-10-15T07:10:33.326Z,99668.81
2022-10-15T07:11:34.805Z,99667.16
2022-10-15T07:12:36.242Z,99660.50
2022-10-15T07:13:37.999Z,99671.81
2022-10-15T07:14:42.380Z,99666.31
2022-10-15T07:15:46.239Z,99665.97
2022-10-15T07:16:48.014Z,99655.50
2022-10-15T07:17:49.804Z,99655.69
2022-10-15T07:18:51.395Z,99659.00
2022-10-15T07:19:52.867Z,99658.69
2022-10-15T07:20:54.347Z,99659.00
2022-10-15T07:21:55.773Z,99659.34
2022-10-15T07:22:58.577Z,99661.34
2022-10-15T07:24:04.047Z,99661.00
2022-10-15T07:25:06.275Z,99666.66
2022-10-15T07:26:07.771Z,99665.16
2022-10-15T07:27:18.812Z,99665.97
2022-10-15T07:28:21.068Z,99660.81
2022-10-15T07:29:22.574Z,99659.16
2022-10-15T07:30:27.260Z,99656.19
2022-10-15T07:31:28.795Z,99668.31
2022-10-15T07:32:30.219Z,99667.97
2022-10-15T07:33:33.414Z,99669.97
2022-10-15T07:34:34.861Z,99667.81
2022-10-15T07:35:37.075Z,99665.31
2022-10-15T07:36:39.399Z,99671.63
2022-10-15T07:37:41.527Z,99675.94
2022-10-15T07:38:43.122Z,99674.13
2022-10-15T07:39:44.543Z,99682.75
2022-10-15T07:40:46.083Z,99682.91
2022-10-15T07:41:47.543Z,99684.41
2022-10-15T07:42:52.494Z,99684.56
2022-10-15T07:43:54.595Z,99679.44
2022-10-15T07:44:56.057Z,99684.88
2022-10-15T07:45:57.551Z,99682.91
2022-10-15T07:46:58.982Z,99677.59
2022-10-15T07:48:00.561Z,99683.56
2022-10-15T07:49:02.082Z,99691.03
2022-10-15T07:50:03.544Z,99686.75
2022-10-15T07:51:05.696Z,99687.72
2022-10-15T07:52:08.727Z,99695.53
2022-10-15T07:53:10.299Z,99694.03
2022-10-15T07:54:11.788Z,99690.03
2022-10-15T07:55:13.208Z,99692.88
2022-10-15T07:56:14.880Z,99693.38
2022-10-15T07:57:16.975Z,99687.22
2022-10-15T07:58:18.460Z,99687.75
2022-10-15T07:59:19.987Z,99700.69
2022-10-15T08:00:21.510Z,99697.03
2022-10-15T08:01:22.970Z,99694.38
2022-10-15T08:02:24.779Z,99696.53
2022-10-15T08:03:26.466Z,99700.88
2022-10-15T08:04:28.124Z,99695.22
2022-10-15T08:05:29.638Z,99698.53
2022-10-15T08:06:31.633Z,99696.22
2022-10-15T08:07:33.098Z,99696.22
2022-10-15T08:08:36.142Z,99701.50
2022-10-15T08:09:37.693Z,99699.19
2022-10-15T08:10:39.271Z,99706.97
2022-10-15T08:11:40.716Z,99710.34
2022-10-15T08:12:44.393Z,99709.66
2022-10-15T08:13:47.130Z,99706.84
2022-10-15T08:14:48.619Z,99706.50
2022-10-15T08:15:56.236Z,99700.03
2022-10-15T08:17:01.482Z,99702.03
2022-10-15T08:18:03.003Z,99702.69
2022-10-15T08:19:04.469Z,99706.69
2022-10-15T08:20:06.121Z,99705.16
2022-10-15T08:21:07.938Z,99706.00
2022-10-15T08:22:09.556Z,99710.97
2022-10-15T08:23:14.563Z,99708.34
2022-10-15T08:24:15.990Z,99712.00
2022-10-15T08:25:17.540Z,99713.81
2022-10-15T08:26:19.166Z,99707.81
2022-10-15T08:27:20.662Z,99715.47
2022-10-15T08:28:22.113Z,99710.31
2022-10-15T08:29:23.608Z,99707.47
2022-10-15T08:30:25.177Z,99707.47
2022-10-15T08:31:26.618Z,99715.81
2022-10-15T08:32:28.154Z,99712.16
2022-10-15T08:33:29.675Z,99704.16
2022-10-15T08:34:31.101Z,99709.81
2022-10-15T08:35:36.635Z,99705.34
2022-10-15T08:36:38.107Z,99707.16
2022-10-15T08:37:39.526Z,99703.19
2022-10-15T08:38:41.013Z,99706.50
2022-10-15T08:39:42.455Z,99708.16
2022-10-15T08:40:48.010Z,99705.81
2022-10-15T08:41:56.399Z,99704.31
2022-10-15T08:42:57.821Z,99709.31
2022-10-15T08:43:59.327Z,99702.84
2022-10-15T08:45:01.894Z,99699.19
2022-10-15T08:46:04.579Z,99710.50
2022-10-15T08:47:07.351Z,99710.81
2022-10-15T08:48:12.605Z,99705.00
2022-10-15T08:49:21.602Z,99713.78
2022-10-15T08:50:41.271Z,99710.31
2022-10-15T08:51:45.527Z,99712.66
2022-10-15T08:52:47.273Z,99708.66
2022-10-15T08:53:50.790Z,99700.13
2022-10-15T08:54:52.725Z,99700.25
2022-10-15T08:55:55.575Z,99708.91
2022-10-15T08:57:04.484Z,99691.41
2022-10-15T08:58:21.317Z,99703.31
2022-10-15T08:59:25.747Z,99707.16
2022-10-15T09:00:47.669Z,99711.91
2022-10-15T09:01:54.794Z,99706.59
2022-10-15T09:03:01.111Z,99706.41
2022-10-15T09:04:02.604Z,99711.75
2022-10-15T09:05:22.819Z,99710.25
2022-10-15T09:06:25.167Z,99714.47
2022-10-15T09:07:31.970Z,99710.13
2022-10-15T09:08:48.255Z,99713.91
2022-10-15T09:09:58.376Z,99714.28
2022-10-15T09:11:00.426Z,99712.59
2022-10-15T09:12:01.861Z,99708.59
2022-10-15T09:13:33.442Z,99708.47
2022-10-15T09:14:35.971Z,99716.28
2022-10-15T09:15:43.211Z,99726.63
2022-10-15T09:16:45.419Z,99722.63
2022-10-15T09:17:47.656Z,99719.47
2022-10-15T09:18:52.479Z,99715.63
2022-10-15T09:19:54.499Z,99717.28
2022-10-15T09:20:56.148Z,99717.13
2022-10-15T09:21:57.624Z,99716.78
2022-10-15T09:22:59.098Z,99718.94
2022-10-15T09:24:03.676Z,99711.78
2022-10-15T09:25:10.748Z,99713.91
2022-10-15T09:26:12.163Z,99716.06
2022-10-15T09:27:19.759Z,99719.91
2022-10-15T09:28:21.482Z,99712.22
2022-10-15T09:29:23.058Z,99716.22
2022-10-15T09:30:45.260Z,99713.91
2022-10-15T09:31:49.154Z,99718.72
2022-10-15T09:32:54.331Z,99717.88
2022-10-15T09:34:19.130Z,99722.88
2022-10-15T09:35:22.122Z,99716.38
2022-10-15T09:36:30.848Z,99714.72
2022-10-15T09:38:05.652Z,99714.03
2022-10-15T09:39:17.791Z,99711.38
2022-10-15T09:40:37.152Z,99724.53
2022-10-15T09:41:41.762Z,99715.56
2022-10-15T09:42:43.220Z,99718.25
2022-10-15T09:43:49.230Z,99721.91
2022-10-15T09:44:50.703Z,99718.25
2022-10-15T09:45:52.183Z,99718.72
2022-10-15T09:46:54.067Z,99718.72
2022-10-15T09:48:00.239Z,99720.38
2022-10-15T09:49:03.553Z,99705.88
2022-10-15T09:50:05.664Z,99714.19
2022-10-15T09:51:08.669Z,99725.03
2022-10-15T09:52:21.557Z,99727.88
2022-10-15T09:53:32.644Z,99720.53
2022-10-15T09:54:40.019Z,99725.88
2022-10-15T09:55:41.414Z,99722.22
2022-10-15T09:56:43.618Z,99721.53
2022-10-15T09:57:46.684Z,99730.34
2022-10-15T09:58:57.536Z,99722.34
2022-10-15T10:00:02.946Z,99728.00
2022-10-15T10:01:17.104Z,99732.84
2022-10-15T10:02:19.062Z,99730.00
2022-10-15T10:03:22.251Z,99727.34
2022-10-15T10:04:24.216Z,99721.03
2022-10-15T10:05:29.296Z,99724.34
2022-10-15T10:06:30.776Z,99735.00
2022-10-15T10:07:36.687Z,99723.69
2022-10-15T10:08:39.245Z,99723.69
2022-10-15T10:10:06.828Z,99732.66
2022-10-15T10:11:09.255Z,99727.53
2022-10-15T10:12:17.875Z,99719.88
2022-10-15T10:13:23.479Z,99730.19
2022-10-15T10:14:32.542Z,99726.69
2022-10-15T10:15:34.893Z,99727.00
2022-10-15T10:16:36.929Z,99727.34
2022-10-15T10:17:40.686Z,99735.97
2022-10-15T10:18:50.273Z,99720.88
2022-10-15T10:20:14.946Z,99725.84
2022-10-15T10:21:28.418Z,99732.47
2022-10-15T10:22:29.849Z,99727.28
2022-10-15T10:23:34.631Z,99733.28
2022-10-15T10:24:36.123Z,99739.97
2022-10-15T10:25:42.719Z,99725.13
2022-10-15T10:26:44.507Z,99733.28
2022-10-15T10:27:46.619Z,99738.13
2022-10-15T10:28:57.144Z,99730.81
2022-10-15T10:30:06.303Z,99731.78
2022-10-15T10:31:07.916Z,99733.44
2022-10-15T10:32:10.167Z,99732.94
2022-10-15T10:33:12.303Z,99731.09
2022-10-15T10:34:14.803Z,99728.28
2022-10-15T10:35:23.176Z,99743.09
2022-10-15T10:36:25.858Z,99735.09
2022-10-15T10:37:27.543Z,99726.75
2022-10-15T10:38:29.344Z,99728.91
2022-10-15T10:39:31.154Z,99733.56
2022-10-15T10:40:34.207Z,99725.53
2022-10-15T10:41:52.159Z,99724.28
2022-10-15T10:43:10.741Z,99726.59
2022-10-15T10:44:18.082Z,99718.59
2022-10-15T10:45:21.010Z,99720.09
2022-10-15T10:46:23.743Z,99725.06
2022-10-15T10:47:26.010Z,99719.53
2022-10-15T10:48:38.882Z,99707.06
2022-10-15T10:49:41.202Z,99710.88
2022-10-15T10:50:45.267Z,99712.53
2022-10-15T10:51:49.692Z,99719.00
2022-10-15T10:52:51.126Z,99710.03
2022-10-15T10:54:01.662Z,99715.00
2022-10-15T10:55:07.013Z,99709.91
2022-10-15T10:56:08.487Z,99720.06
2022-10-15T10:57:10.605Z,99710.88
2022-10-15T10:58:17.157Z,99713.22
2022-10-15T10:59:19.631Z,99704.38
2022-10-15T11:00:44.289Z,99720.53
2022-10-15T11:01:45.847Z,99714.19
2022-10-15T11:02:49.094Z,99710.50
2022-10-15T11:03:51.412Z,99705.34
2022-10-15T11:04:53.035Z,99709.22
2022-10-15T11:05:56.611Z,99710.72
2022-10-15T11:07:01.787Z,99705.91
2022-10-15T11:08:03.271Z,99711.25
2022-10-15T11:09:07.947Z,99714.56
2022-10-15T11:10:18.351Z,99717.41
2022-10-15T11:11:38.728Z,99709.41
2022-10-15T11:12:58.622Z,99708.72
2022-10-15T11:14:03.314Z,99708.50
2022-10-15T11:15:23.546Z,99707.16
2022-10-15T11:16:29.745Z,99707.41
2022-10-15T11:17:37.342Z,99705.06
2022-10-15T11:18:53.090Z,99704.34
2022-10-15T11:20:12.920Z,99710.69
2022-10-15T11:21:35.980Z,99698.53
2022-10-15T11:22:41.749Z,99702.84
2022-10-15T11:23:46.009Z,99703.00
2022-10-15T11:24:48.972Z,99694.50
2022-10-15T11:25:54.163Z,99695.81
2022-10-15T11:27:10.147Z,99711.63
2022-10-15T11:28:18.462Z,99696.66
2022-10-15T11:29:20.163Z,99695.94
2022-10-15T11:30:47.884Z,99693.63
2022-10-15T11:32:02.904Z,99701.53
2022-10-15T11:33:19.357Z,99691.09
2022-10-15T11:34:26.701Z,99701.38
2022-10-15T11:35:52.325Z,99687.81
2022-10-15T11:36:54.842Z,99678.72
2022-10-15T11:37:56.273Z,99691.25
2022-10-15T11:39:16.188Z,99695.41
2022-10-15T11:40:36.817Z,99689.16
2022-10-15T11:41:41.784Z,99696.13
2022-10-15T11:42:56.702Z,99679.38
2022-10-15T11:44:01.373Z,99686.09
2022-10-15T11:45:19.022Z,99682.44
2022-10-15T11:46:42.783Z,99687.28
2022-10-15T11:47:47.101Z,99681.38
2022-10-15T11:49:17.688Z,99687.16
2022-10-15T11:50:37.970Z,99681.00
2022-10-15T11:51:50.194Z,99672.03
2022-10-15T11:52:54.604Z,99676.28
2022-10-15T11:54:05.187Z,99671.06
2022-10-15T11:55:09.613Z,99682.56
2022-10-15T11:56:12.695Z,99674.19
2022-10-15T11:57:15.611Z,99674.28
2022-10-15T11:58:20.960Z,99674.28
2022-10-15T11:59:41.080Z,99675.34
2022-10-15T12:00:44.431Z,99682.56
2022-10-15T12:01:50.000Z,99666.09
2022-10-15T12:02:51.473Z,99661.59
2022-10-15T12:03:54.587Z,99672.94
2022-10-15T12:05:00.418Z,99665.47
2022-10-15T12:06:05.517Z,99657.66
2022-10-15T12:07:07.546Z,99672.66
2022-10-15T12:08:09.837Z,99665.56
2022-10-15T12:09:13.070Z,99663.69
2022-10-15T12:10:32.560Z,99662.53
2022-10-15T12:11:59.557Z,99654.16
2022-10-15T12:13:11.499Z,99667.16
2022-10-15T12:14:19.054Z,99651.53
2022-10-15T12:15:23.973Z,99665.84
2022-10-15T12:16:27.031Z,99655.69
2022-10-15T12:17:28.455Z,99651.69
2022-10-15T12:18:38.054Z,99653.09
2022-10-15T12:19:47.459Z,99651.34
2022-10-15T12:20:48.914Z,99667.53
2022-10-15T12:21:56.617Z,99653.84
2022-10-15T12:22:59.013Z,99652.19
2022-10-15T12:24:00.629Z,99655.97
2022-10-15T12:25:02.167Z,99649.81
2022-10-15T12:26:25.909Z,99659.75
2022-10-15T12:27:29.742Z,99648.63
2022-10-15T12:28:31.327Z,99653.00
2022-10-15T12:29:32.787Z,99649.81
2022-10-15T12:30:37.020Z,99647.69
2022-10-15T12:31:51.150Z,99648.03
2022-10-15T12:32:53.599Z,99638.94
2022-10-15T12:33:55.331Z,99643.88
2022-10-15T12:34:57.407Z,99639.88
2022-10-15T12:36:02.875Z,99641.56
2022-10-15T12:37:09.690Z,99645.06
2022-10-15T12:38:12.348Z,99651.91
2022-10-15T12:39:33.497Z,99635.16
2022-10-15T12:40:35.838Z,99635.63
2022-10-15T12:41:38.264Z,99647.31
2022-10-15T12:42:39.699Z,99637.72
2022-10-15T12:43:41.783Z,99638.06
2022-10-15T12:44:43.304Z,99640.91